createdAt,value
2023-03-20T00:00:34.059Z,10.36
2023-03-20T00:01:37.413Z,10.23
2023-03-20T00:02:39.932Z,10.24
2023-03-20T00:03:43.011Z,10.28
2023-03-20T00:04:45.614Z,10.33
2023-03-20T00:05:48.095Z,10.20
2023-03-20T00:06:50.617Z,10.30
2023-03-20T00:07:53.263Z,10.24
2023-03-20T00:08:57.586Z,10.24
2023-03-20T00:10:00.453Z,10.17
2023-03-20T00:11:02.979Z,10.13
2023-03-20T00:12:05.985Z,10.10
2023-03-20T00:13:14.993Z,10.20
2023-03-20T00:14:20.376Z,10.14
2023-03-20T00:15:32.658Z,10.08
2023-03-20T00:16:39.964Z,10.12
2023-03-20T00:17:42.584Z,9.88
2023-03-20T00:18:45.229Z,9.88
2023-03-20T00:19:47.876Z,9.93
2023-03-20T00:20:51.472Z,9.92
2023-03-20T00:21:55.185Z,9.90
2023-03-20T00:22:57.708Z,9.89
2023-03-20T00:24:00.824Z,9.89
2023-03-20T00:25:03.590Z,10.00
2023-03-20T00:26:06.587Z,9.89
2023-03-20T00:27:18.228Z,9.99
2023-03-20T00:28:30.123Z,9.88
2023-03-20T00:29:34.485Z,9.96
2023-03-20T00:30:36.952Z,9.89
2023-03-20T00:31:40.337Z,9.92
2023-03-20T00:32:42.895Z,9.82
2023-03-20T00:33:46.913Z,9.75
2023-03-20T00:34:49.433Z,9.65
2023-03-20T00:35:51.864Z,9.62
2023-03-20T00:36:54.599Z,9.71
2023-03-20T00:37:58.440Z,9.76
2023-03-20T00:39:02.061Z,9.65
2023-03-20T00:40:04.800Z,9.50
2023-03-20T00:41:34.686Z,9.59
2023-03-20T00:42:37.439Z,9.45
2023-03-20T00:43:40.081Z,9.35
2023-03-20T00:45:13.080Z,9.50
2023-03-20T00:46:16.016Z,9.28
2023-03-20T00:47:21.490Z,9.29
2023-03-20T00:48:24.006Z,9.29
2023-03-20T00:49:29.403Z,9.40
2023-03-20T00:50:31.940Z,9.31
2023-03-20T00:51:34.337Z,9.25
2023-03-20T00:52:37.565Z,9.20
2023-03-20T00:53:39.969Z,9.08
2023-03-20T00:54:42.488Z,9.20
2023-03-20T00:55:45.008Z,9.14
2023-03-20T00:57:06.730Z,9.35
2023-03-20T00:58:12.012Z,9.41
2023-03-20T00:59:20.772Z,9.45
2023-03-20T01:00:36.521Z,9.45
2023-03-20T01:01:39.071Z,9.33
2023-03-20T01:02:42.133Z,9.29
2023-03-20T01:03:44.651Z,9.26
2023-03-20T01:04:48.854Z,9.20
2023-03-20T01:05:51.861Z,9.18
2023-03-20T01:06:54.379Z,9.18
2023-03-20T01:07:57.018Z,9.20
2023-03-20T01:09:00.264Z,9.21
2023-03-20T01:10:02.781Z,9.26
2023-03-20T01:11:05.908Z,9.25
2023-03-20T01:12:10.697Z,9.17
2023-03-20T01:13:25.338Z,9.29
2023-03-20T01:14:27.855Z,9.19
2023-03-20T01:15:34.174Z,9.30
2023-03-20T01:16:36.955Z,9.23
2023-03-20T01:17:39.498Z,9.21
2023-03-20T01:18:41.786Z,9.16
2023-03-20T01:19:44.308Z,9.24
2023-03-20T01:20:47.917Z,9.30
2023-03-20T01:21:50.786Z,9.30
2023-03-20T01:22:53.307Z,9.28
2023-03-20T01:23:55.941Z,9.29
2023-03-20T01:24:58.463Z,9.30
2023-03-20T01:26:00.997Z,9.25
2023-03-20T01:27:05.544Z,9.37
2023-03-20T01:28:23.318Z,9.47
2023-03-20T01:29:30.516Z,9.30
2023-03-20T01:30:34.253Z,9.26
2023-03-20T01:31:36.866Z,9.24
2023-03-20T01:32:39.659Z,9.28
2023-03-20T01:33:42.391Z,9.34
2023-03-20T01:34:45.153Z,9.43
2023-03-20T01:35:49.033Z,9.37
2023-03-20T01:36:54.874Z,9.46
2023-03-20T01:37:57.750Z,9.42
2023-03-20T01:39:00.404Z,9.42
2023-03-20T01:40:03.635Z,9.37
2023-03-20T01:41:18.280Z,9.42
2023-03-20T01:42:20.938Z,9.33
2023-03-20T01:43:26.436Z,9.38
2023-03-20T01:44:31.241Z,9.47
2023-03-20T01:45:36.702Z,9.44
2023-03-20T01:46:40.718Z,9.35
2023-03-20T01:47:52.238Z,9.33
2023-03-20T01:49:19.127Z,9.40
2023-03-20T01:50:26.897Z,9.27
2023-03-20T01:51:36.401Z,9.19
2023-03-20T01:52:44.928Z,9.25
2023-03-20T01:53:52.009Z,9.34
2023-03-20T01:54:54.523Z,9.26
2023-03-20T01:55:59.947Z,9.25
2023-03-20T01:57:16.974Z,9.31
2023-03-20T01:58:25.766Z,9.28
2023-03-20T01:59:41.593Z,9.24
2023-03-20T02:00:45.535Z,9.25
2023-03-20T02:01:51.770Z,9.22
2023-03-20T02:02:57.538Z,9.15
2023-03-20T02:04:41.545Z,9.32
2023-03-20T02:05:46.616Z,9.23
2023-03-20T02:06:49.135Z,9.10
2023-03-20T02:08:27.297Z,9.26
2023-03-20T02:09:30.415Z,9.17
2023-03-20T02:10:34.383Z,9.12
2023-03-20T02:11:54.781Z,9.18
2023-03-20T02:12:58.017Z,9.14
2023-03-20T02:14:10.500Z,9.15
2023-03-20T02:15:27.542Z,9.30
2023-03-20T02:16:48.244Z,9.26
2023-03-20T02:18:09.183Z,9.20
2023-03-20T02:19:27.660Z,9.29
2023-03-20T02:20:44.586Z,9.20
2023-03-20T02:22:05.228Z,9.29
2023-03-20T02:23:37.622Z,9.26
2023-03-20T02:25:15.840Z,9.16
2023-03-20T02:26:31.755Z,9.41
2023-03-20T02:28:10.154Z,9.40
2023-03-20T02:29:39.319Z,9.38
2023-03-20T02:31:19.547Z,9.42
2023-03-20T02:32:37.807Z,9.36
2023-03-20T02:33:46.029Z,9.36
2023-03-20T02:35:12.669Z,9.33
2023-03-20T02:36:34.515Z,9.29
2023-03-20T02:38:02.252Z,9.29
2023-03-20T02:39:25.875Z,9.36
2023-03-20T02:40:43.895Z,9.38
2023-03-20T02:42:05.356Z,9.36
2023-03-20T02:43:17.599Z,9.35
2023-03-20T02:44:41.486Z,9.33
2023-03-20T02:46:05.852Z,9.37
2023-03-20T02:47:18.798Z,9.31
2023-03-20T02:48:39.198Z,9.29
2023-03-20T02:49:42.079Z,9.16
2023-03-20T02:51:04.643Z,9.17
2023-03-20T02:52:27.341Z,9.34
2023-03-20T02:54:05.122Z,9.36
2023-03-20T02:55:32.103Z,9.32
2023-03-20T02:57:02.250Z,9.32
2023-03-20T02:58:14.273Z,9.23
2023-03-20T02:59:26.126Z,9.24
2023-03-20T03:00:37.409Z,9.34
2023-03-20T03:01:47.798Z,9.24
2023-03-20T03:03:07.309Z,9.38
2023-03-20T03:04:18.468Z,9.36
2023-03-20T03:05:29.970Z,9.30
2023-03-20T03:06:36.088Z,9.27
2023-03-20T03:07:42.450Z,9.31
2023-03-20T03:08:50.735Z,9.38
2023-03-20T03:10:00.333Z,9.34
2023-03-20T03:11:06.821Z,9.33
2023-03-20T03:12:21.935Z,9.33
2023-03-20T03:13:29.975Z,9.23
2023-03-20T03:14:37.418Z,9.37
2023-03-20T03:15:47.158Z,9.27
2023-03-20T03:16:51.829Z,9.27
2023-03-20T03:17:56.148Z,9.30
2023-03-20T03:19:08.979Z,9.39
2023-03-20T03:20:26.619Z,9.39
2023-03-20T03:21:30.718Z,9.30
2023-03-20T03:22:34.569Z,9.33
2023-03-20T03:23:45.478Z,9.36
2023-03-20T03:24:53.661Z,9.34
2023-03-20T03:25:59.145Z,9.17
2023-03-20T03:27:05.743Z,9.21
2023-03-20T03:28:10.935Z,9.23
2023-03-20T03:29:17.513Z,9.23
2023-03-20T03:30:27.223Z,9.33
2023-03-20T03:31:31.949Z,9.35
2023-03-20T03:32:49.853Z,9.32
2023-03-20T03:33:54.984Z,9.32
2023-03-20T03:34:59.868Z,9.34
2023-03-20T03:36:21.470Z,9.35
2023-03-20T03:37:40.914Z,9.29
2023-03-20T03:39:02.993Z,9.24
2023-03-20T03:40:19.194Z,9.22
2023-03-20T03:41:28.555Z,9.26
2023-03-20T03:42:50.394Z,9.22
2023-03-20T03:43:57.720Z,9.12
2023-03-20T03:45:07.801Z,9.16
2023-03-20T03:46:17.337Z,9.13
2023-03-20T03:47:31.805Z,9.16
2023-03-20T03:48:40.918Z,9.16
2023-03-20T03:49:49.920Z,9.24
2023-03-20T03:50:56.768Z,9.17
2023-03-20T03:52:05.892Z,9.18
2023-03-20T03:53:12.264Z,9.13
2023-03-20T03:54:31.205Z,9.19
2023-03-20T03:56:14.343Z,9.17
2023-03-20T03:57:22.933Z,9.10
2023-03-20T03:58:31.113Z,9.04
2023-03-20T03:59:40.449Z,9.06
2023-03-20T04:00:48.005Z,9.07
2023-03-20T04:01:52.629Z,9.05
2023-03-20T04:02:57.729Z,9.05
2023-03-20T04:04:04.928Z,9.07
2023-03-20T04:05:09.494Z,9.04
2023-03-20T04:06:12.971Z,9.01
2023-03-20T04:07:16.228Z,9.04
2023-03-20T04:08:18.736Z,9.05
2023-03-20T04:09:21.257Z,9.03
2023-03-20T04:10:24.133Z,9.09
2023-03-20T04:11:30.382Z,9.01
2023-03-20T04:12:34.819Z,9.06
2023-03-20T04:13:37.485Z,8.97
2023-03-20T04:14:39.986Z,8.95
2023-03-20T04:15:43.220Z,9.00
2023-03-20T04:16:46.223Z,8.94
2023-03-20T04:17:49.104Z,9.03
2023-03-20T04:18:53.668Z,9.09
2023-03-20T04:19:56.671Z,9.08
2023-03-20T04:21:00.113Z,9.06
2023-03-20T04:22:03.514Z,9.07
2023-03-20T04:23:06.750Z,8.99
2023-03-20T04:24:09.271Z,8.97
2023-03-20T04:25:20.324Z,9.06
2023-03-20T04:26:24.406Z,8.95
2023-03-20T04:27:27.635Z,9.02
2023-03-20T04:28:30.391Z,8.94
2023-03-20T04:29:40.726Z,8.93
2023-03-20T04:31:02.429Z,9.06
2023-03-20T04:32:26.914Z,9.01
2023-03-20T04:33:37.985Z,8.88
2023-03-20T04:34:58.006Z,8.92
2023-03-20T04:36:23.675Z,8.96
2023-03-20T04:37:28.356Z,9.00
2023-03-20T04:38:41.438Z,8.95
2023-03-20T04:39:44.680Z,8.93
2023-03-20T04:40:47.692Z,8.94
2023-03-20T04:41:50.205Z,8.95
2023-03-20T04:42:52.727Z,8.94
2023-03-20T04:43:55.958Z,8.96
2023-03-20T04:44:59.219Z,8.94
2023-03-20T04:46:02.254Z,8.96
2023-03-20T04:47:04.973Z,8.86
2023-03-20T04:48:09.281Z,9.00
2023-03-20T04:49:13.723Z,8.94
2023-03-20T04:50:16.483Z,8.87
2023-03-20T04:51:19.741Z,8.85
2023-03-20T04:52:26.692Z,8.93
2023-03-20T04:53:29.207Z,8.90
2023-03-20T04:54:31.845Z,8.84
2023-03-20T04:55:34.601Z,8.89
2023-03-20T04:56:37.248Z,8.88
2023-03-20T04:58:05.927Z,8.83
2023-03-20T04:59:08.450Z,8.79
2023-03-20T05:00:11.698Z,8.83
2023-03-20T05:01:14.261Z,8.85
2023-03-20T05:02:18.049Z,8.76
2023-03-20T05:03:23.401Z,8.77
2023-03-20T05:04:27.941Z,8.75
2023-03-20T05:05:30.895Z,8.76
2023-03-20T05:06:33.302Z,8.80
2023-03-20T05:07:36.563Z,8.69
2023-03-20T05:08:47.460Z,8.72
2023-03-20T05:09:52.611Z,8.70
2023-03-20T05:10:55.016Z,8.70
2023-03-20T05:12:16.137Z,8.64
2023-03-20T05:13:35.955Z,8.67
2023-03-20T05:14:58.619Z,8.65
2023-03-20T05:16:23.946Z,8.72
2023-03-20T05:17:46.503Z,8.74
2023-03-20T05:19:13.508Z,8.76
2023-03-20T05:20:33.299Z,8.66
2023-03-20T05:21:42.428Z,8.68
2023-03-20T05:23:10.382Z,8.73
2023-03-20T05:24:26.360Z,8.74
2023-03-20T05:25:40.506Z,8.78
2023-03-20T05:27:02.461Z,8.78
2023-03-20T05:28:23.482Z,8.70
2023-03-20T05:29:52.144Z,8.75
2023-03-20T05:31:23.172Z,8.98
2023-03-20T05:32:45.958Z,8.84
2023-03-20T05:34:08.711Z,8.77
2023-03-20T05:35:43.699Z,8.79
2023-03-20T05:37:18.309Z,8.82
2023-03-20T05:38:40.035Z,8.80
2023-03-20T05:39:56.472Z,8.79
2023-03-20T05:41:19.275Z,8.75
2023-03-20T05:43:00.436Z,8.73
2023-03-20T05:44:21.707Z,8.79
2023-03-20T05:45:44.353Z,8.81
2023-03-20T05:46:59.850Z,8.82
2023-03-20T05:48:37.524Z,8.76
2023-03-20T05:49:59.000Z,8.79
2023-03-20T05:51:27.446Z,8.86
2023-03-20T05:52:35.846Z,8.92
2023-03-20T05:53:57.200Z,8.83
2023-03-20T05:55:20.002Z,8.92
2023-03-20T05:56:39.122Z,8.84
2023-03-20T05:57:59.370Z,8.88
2023-03-20T05:59:12.686Z,8.90
2023-03-20T06:00:33.587Z,8.92
2023-03-20T06:01:59.249Z,8.82
2023-03-20T06:03:07.084Z,8.92
2023-03-20T06:04:26.612Z,9.07
2023-03-20T06:05:55.413Z,8.99
2023-03-20T06:06:58.054Z,9.01
2023-03-20T06:08:00.580Z,9.01
2023-03-20T06:09:03.097Z,9.07
2023-03-20T06:10:06.586Z,9.11
2023-03-20T06:11:10.547Z,9.10
2023-03-20T06:12:14.016Z,9.06
2023-03-20T06:13:16.654Z,9.01
2023-03-20T06:14:19.294Z,8.95
2023-03-20T06:15:29.381Z,8.94
2023-03-20T06:16:39.464Z,8.99
2023-03-20T06:17:41.978Z,8.99
2023-03-20T06:18:44.505Z,8.89
2023-03-20T06:19:47.886Z,9.01
2023-03-20T06:20:56.634Z,9.08
2023-03-20T06:22:00.700Z,9.03
2023-03-20T06:23:03.230Z,8.97
2023-03-20T06:24:06.001Z,8.99
2023-03-20T06:25:08.867Z,9.01
2023-03-20T06:26:15.839Z,9.02
2023-03-20T06:27:34.785Z,9.10
2023-03-20T06:28:37.306Z,9.15
2023-03-20T06:29:43.067Z,8.99
2023-03-20T06:30:54.632Z,9.14
2023-03-20T06:31:58.790Z,9.08
2023-03-20T06:33:08.392Z,9.12
2023-03-20T06:34:20.384Z,9.10
2023-03-20T06:35:23.669Z,9.20
2023-03-20T06:36:26.868Z,9.24
2023-03-20T06:37:36.623Z,9.29
2023-03-20T06:38:44.151Z,9.35
2023-03-20T06:39:50.391Z,9.24
2023-03-20T06:40:53.470Z,9.18
2023-03-20T06:41:56.153Z,9.31
2023-03-20T06:43:06.877Z,9.18
2023-03-20T06:44:19.115Z,9.31
2023-03-20T06:45:54.246Z,9.23
2023-03-20T06:47:02.550Z,9.32
2023-03-20T06:48:10.388Z,9.42
2023-03-20T06:49:15.038Z,9.33
2023-03-20T06:50:18.025Z,9.26
2023-03-20T06:51:20.664Z,9.22
2023-03-20T06:52:28.348Z,9.23
2023-03-20T06:53:52.279Z,9.13
2023-03-20T06:54:59.069Z,9.28
2023-03-20T06:56:02.441Z,9.29
2023-03-20T06:57:05.645Z,9.30
2023-03-20T06:58:11.201Z,9.39
2023-03-20T06:59:14.691Z,9.32
2023-03-20T07:00:18.359Z,9.31
2023-03-20T07:01:21.161Z,9.23
2023-03-20T07:02:24.486Z,9.21
2023-03-20T07:03:27.007Z,9.15
2023-03-20T07:04:29.739Z,9.28
2023-03-20T07:05:36.078Z,9.31
2023-03-20T07:06:42.735Z,9.30
2023-03-20T07:07:46.102Z,9.27
2023-03-20T07:08:48.741Z,9.29
2023-03-20T07:09:51.270Z,9.29
2023-03-20T07:10:53.772Z,9.33
2023-03-20T07:11:56.294Z,9.40
2023-03-20T07:13:00.389Z,9.53
2023-03-20T07:14:03.736Z,9.58
2023-03-20T07:15:27.375Z,9.48
2023-03-20T07:16:29.953Z,9.48
2023-03-20T07:17:32.540Z,9.50
2023-03-20T07:18:35.059Z,9.43
2023-03-20T07:19:38.295Z,9.50
2023-03-20T07:20:41.426Z,9.58
2023-03-20T07:21:44.429Z,9.63
2023-03-20T07:22:48.982Z,9.66
2023-03-20T07:23:54.385Z,9.63
2023-03-20T07:24:57.267Z,9.53
2023-03-20T07:26:01.260Z,9.68
2023-03-20T07:27:03.989Z,9.64
2023-03-20T07:28:08.310Z,9.71
2023-03-20T07:29:13.959Z,9.57
2023-03-20T07:30:18.275Z,9.67
2023-03-20T07:31:24.783Z,9.62
2023-03-20T07:32:43.388Z,9.57
2023-03-20T07:33:46.253Z,9.61
2023-03-20T07:34:50.340Z,9.62
2023-03-20T07:35:55.297Z,9.70
2023-03-20T07:36:58.370Z,9.64
2023-03-20T07:38:01.043Z,9.72
2023-03-20T07:39:04.120Z,9.62
2023-03-20T07:40:09.402Z,9.74
2023-03-20T07:41:20.675Z,9.61
2023-03-20T07:42:33.639Z,9.67
2023-03-20T07:43:47.192Z,9.73
2023-03-20T07:45:09.520Z,9.72
2023-03-20T07:46:12.117Z,9.74
2023-03-20T07:47:14.555Z,9.60
2023-03-20T07:48:17.438Z,9.74
2023-03-20T07:49:20.334Z,9.75
2023-03-20T07:50:22.958Z,9.85
2023-03-20T07:51:25.724Z,9.73
2023-03-20T07:52:28.238Z,9.86
2023-03-20T07:53:30.757Z,9.91
2023-03-20T07:54:33.280Z,9.87
2023-03-20T07:55:36.032Z,9.88
2023-03-20T07:56:38.682Z,9.90
2023-03-20T07:57:41.082Z,9.86
2023-03-20T07:58:43.605Z,9.90
2023-03-20T07:59:46.120Z,9.86
2023-03-20T08:00:48.641Z,9.88
2023-03-20T08:01:51.522Z,10.00
2023-03-20T08:02:54.117Z,9.91
2023-03-20T08:03:56.924Z,10.12
2023-03-20T08:04:59.567Z,10.23
2023-03-20T08:06:04.253Z,10.19
2023-03-20T08:07:06.924Z,10.24
2023-03-20T08:08:09.526Z,10.34
2023-03-20T08:09:12.304Z,10.31
2023-03-20T08:10:14.806Z,10.45
2023-03-20T08:11:17.573Z,10.46
2023-03-20T08:12:20.090Z,10.39
2023-03-20T08:13:22.619Z,10.27
2023-03-20T08:14:25.254Z,10.21
2023-03-20T08:15:27.654Z,10.17
2023-03-20T08:16:30.238Z,10.09
2023-03-20T08:17:32.857Z,10.15
2023-03-20T08:18:35.717Z,10.07
2023-03-20T08:19:38.457Z,10.17
2023-03-20T08:20:40.979Z,10.15
2023-03-20T08:21:43.500Z,10.28
2023-03-20T08:22:45.905Z,10.38
2023-03-20T08:23:48.428Z,10.35
2023-03-20T08:24:50.944Z,10.36
2023-03-20T08:25:54.424Z,10.43
2023-03-20T08:26:56.944Z,10.39
2023-03-20T08:28:01.753Z,10.31
2023-03-20T08:29:04.748Z,10.24
2023-03-20T08:30:07.772Z,10.30
2023-03-20T08:31:10.449Z,10.30
2023-03-20T08:32:13.031Z,10.30
2023-03-20T08:33:17.216Z,10.36
2023-03-20T08:34:20.273Z,10.28
2023-03-20T08:35:32.928Z,10.30
2023-03-20T08:36:36.558Z,10.38
2023-03-20T08:37:39.194Z,10.46
2023-03-20T08:38:42.808Z,10.52
2023-03-20T08:39:45.311Z,10.39
2023-03-20T08:40:47.716Z,10.40
2023-03-20T08:41:50.359Z,10.32
2023-03-20T08:42:52.883Z,10.31
2023-03-20T08:43:55.280Z,10.55
2023-03-20T08:44:57.805Z,10.50
2023-03-20T08:46:00.358Z,10.60
2023-03-20T08:47:03.675Z,10.51
2023-03-20T08:48:06.565Z,10.54
2023-03-20T08:49:08.965Z,10.59
2023-03-20T08:50:12.087Z,10.71
2023-03-20T08:51:15.099Z,10.73
2023-03-20T08:52:17.598Z,10.84
2023-03-20T08:53:22.141Z,10.83
2023-03-20T08:54:25.327Z,10.94
2023-03-20T08:55:27.800Z,10.85
2023-03-20T08:56:30.560Z,10.76
2023-03-20T08:57:32.968Z,10.75
2023-03-20T08:58:35.602Z,10.82
2023-03-20T08:59:38.125Z,10.66
2023-03-20T09:00:42.204Z,10.58
2023-03-20T09:01:49.786Z,10.60
2023-03-20T09:02:52.838Z,10.53
2023-03-20T09:03:55.405Z,10.77
2023-03-20T09:04:57.966Z,10.93
2023-03-20T09:06:00.574Z,10.98
2023-03-20T09:07:03.337Z,11.01
2023-03-20T09:08:05.732Z,11.03
2023-03-20T09:09:08.606Z,11.06
2023-03-20T09:10:12.105Z,11.09
2023-03-20T09:11:14.735Z,10.92
2023-03-20T09:12:17.275Z,10.41
2023-03-20T09:13:27.183Z,10.38
2023-03-20T09:14:30.222Z,10.45
2023-03-20T09:15:32.734Z,10.46
2023-03-20T09:16:35.470Z,10.47
2023-03-20T09:17:37.904Z,10.53
2023-03-20T09:18:40.417Z,10.56
2023-03-20T09:19:44.773Z,10.54
2023-03-20T09:20:47.978Z,10.57
2023-03-20T09:21:50.738Z,10.77
2023-03-20T09:22:54.541Z,10.64
2023-03-20T09:23:57.223Z,10.54
2023-03-20T09:24:59.871Z,10.70
2023-03-20T09:26:02.378Z,10.60
2023-03-20T09:27:04.905Z,10.78
2023-03-20T09:28:07.312Z,10.77
2023-03-20T09:29:09.944Z,10.62
2023-03-20T09:30:13.304Z,10.63
2023-03-20T09:31:15.741Z,10.66
2023-03-20T09:32:18.227Z,10.89
2023-03-20T09:33:20.749Z,10.98
2023-03-20T09:34:24.354Z,11.12
2023-03-20T09:35:26.989Z,11.13
2023-03-20T09:36:29.517Z,10.99
2023-03-20T09:37:32.028Z,11.21
2023-03-20T09:38:34.792Z,11.36
2023-03-20T09:39:37.329Z,11.43
2023-03-20T09:40:45.849Z,11.49
2023-03-20T09:41:57.123Z,11.41
2023-03-20T09:43:11.872Z,11.26
2023-03-20T09:44:42.003Z,11.12
2023-03-20T09:46:22.234Z,11.00
2023-03-20T09:47:41.036Z,11.15
2023-03-20T09:49:07.693Z,11.28
2023-03-20T09:50:25.317Z,11.20
2023-03-20T09:51:33.597Z,11.36
2023-03-20T09:52:42.357Z,11.50
2023-03-20T09:53:54.976Z,11.68
2023-03-20T09:55:02.533Z,11.81
2023-03-20T09:56:11.178Z,11.75
2023-03-20T09:57:29.766Z,11.97
2023-03-20T09:58:37.808Z,11.99
2023-03-20T09:59:40.442Z,12.12
2023-03-20T10:00:46.207Z,12.01
2023-03-20T10:02:04.818Z,12.01
2023-03-20T10:03:17.523Z,11.64
2023-03-20T10:04:20.464Z,11.64
2023-03-20T10:05:27.964Z,11.84
2023-03-20T10:06:30.485Z,11.86
2023-03-20T10:07:33.007Z,11.75
2023-03-20T10:08:38.528Z,11.84
2023-03-20T10:09:41.288Z,11.98
2023-03-20T10:10:53.175Z,12.25
2023-03-20T10:11:58.451Z,12.21
2023-03-20T10:13:38.650Z,12.53
2023-03-20T10:14:56.174Z,12.85
2023-03-20T10:16:32.495Z,12.97
2023-03-20T10:17:40.822Z,13.00
2023-03-20T10:18:57.373Z,12.85
2023-03-20T10:20:11.894Z,12.52
2023-03-20T10:21:24.976Z,12.39
2023-03-20T10:22:36.638Z,12.39
2023-03-20T10:23:47.060Z,12.23
2023-03-20T10:24:59.299Z,12.28
2023-03-20T10:26:13.707Z,12.36
2023-03-20T10:27:32.788Z,12.28
2023-03-20T10:28:51.024Z,12.36
2023-03-20T10:30:08.782Z,12.40
2023-03-20T10:31:42.917Z,12.48
2023-03-20T10:33:00.236Z,12.63
2023-03-20T10:34:05.662Z,12.77
2023-03-20T10:35:13.830Z,13.12
2023-03-20T10:36:47.017Z,13.66
2023-03-20T10:38:22.709Z,14.75
2023-03-20T10:39:59.916Z,15.80
2023-03-20T10:41:04.601Z,16.19
2023-03-20T10:42:18.290Z,16.75
2023-03-20T10:43:24.752Z,17.58
2023-03-20T10:44:37.712Z,18.87
2023-03-20T10:45:45.879Z,19.26
2023-03-20T10:46:53.263Z,19.48
2023-03-20T10:47:57.696Z,19.55
2023-03-20T10:49:08.928Z,19.74
2023-03-20T10:50:18.746Z,18.93
2023-03-20T10:51:25.115Z,17.31
2023-03-20T10:52:38.085Z,16.62
2023-03-20T10:53:52.137Z,16.41
2023-03-20T10:55:21.292Z,15.71
2023-03-20T10:56:29.086Z,15.20
2023-03-20T10:57:36.639Z,15.15
2023-03-20T10:58:41.919Z,15.68
2023-03-20T10:59:51.082Z,15.50
2023-03-20T11:00:56.785Z,15.18
2023-03-20T11:01:59.322Z,15.02
2023-03-20T11:03:01.855Z,15.02
2023-03-20T11:04:04.645Z,14.87
2023-03-20T11:05:35.100Z,14.98
2023-03-20T11:07:04.965Z,15.36
2023-03-20T11:08:16.486Z,15.56
2023-03-20T11:09:22.255Z,15.67
2023-03-20T11:10:26.821Z,14.97
2023-03-20T11:11:34.866Z,14.77
2023-03-20T11:12:46.739Z,14.71
2023-03-20T11:13:49.494Z,14.55
2023-03-20T11:15:01.252Z,14.74
2023-03-20T11:16:19.913Z,14.67
2023-03-20T11:17:22.255Z,14.49
2023-03-20T11:18:26.456Z,14.42
2023-03-20T11:19:37.387Z,14.59
2023-03-20T11:20:44.707Z,14.82
2023-03-20T11:21:52.532Z,14.47
2023-03-20T11:23:02.946Z,14.02
2023-03-20T11:24:06.064Z,14.28
2023-03-20T11:25:24.303Z,14.34
2023-03-20T11:26:41.461Z,14.31
2023-03-20T11:27:43.986Z,13.99
2023-03-20T11:28:53.260Z,13.69
2023-03-20T11:29:57.184Z,13.60
2023-03-20T11:31:07.513Z,13.47
2023-03-20T11:32:35.051Z,13.52
2023-03-20T11:33:41.255Z,13.48
2023-03-20T11:34:43.875Z,13.30
2023-03-20T11:35:47.973Z,13.33
2023-03-20T11:37:10.151Z,13.41
2023-03-20T11:38:19.869Z,13.59
2023-03-20T11:39:28.028Z,13.70
2023-03-20T11:40:33.465Z,13.74
2023-03-20T11:42:02.113Z,13.66
2023-03-20T11:43:11.973Z,13.75
2023-03-20T11:44:23.228Z,13.81
2023-03-20T11:45:26.477Z,13.92
2023-03-20T11:46:28.994Z,13.78
2023-03-20T11:47:36.207Z,13.74
2023-03-20T11:48:41.714Z,13.74
2023-03-20T11:49:52.995Z,13.53
2023-03-20T11:51:05.354Z,13.26
2023-03-20T11:52:13.758Z,13.20
2023-03-20T11:53:54.436Z,12.91
2023-03-20T11:54:59.610Z,12.69
2023-03-20T11:56:12.699Z,12.82
2023-03-20T11:57:43.787Z,12.69
2023-03-20T11:58:58.287Z,12.73
2023-03-20T12:00:25.536Z,12.64
2023-03-20T12:01:29.604Z,12.54
2023-03-20T12:02:32.646Z,12.64
2023-03-20T12:03:37.940Z,12.75
2023-03-20T12:04:45.804Z,12.68
2023-03-20T12:05:48.328Z,12.74
2023-03-20T12:07:11.202Z,12.75
2023-03-20T12:08:20.370Z,12.90
2023-03-20T12:09:40.531Z,12.83
2023-03-20T12:10:46.650Z,12.96
2023-03-20T12:11:52.654Z,13.15
2023-03-20T12:12:59.856Z,13.34
2023-03-20T12:14:04.659Z,13.23
2023-03-20T12:15:12.813Z,13.25
2023-03-20T12:16:21.141Z,13.22
2023-03-20T12:17:35.744Z,13.08
2023-03-20T12:18:48.338Z,13.09
2023-03-20T12:19:53.021Z,13.11
2023-03-20T12:21:04.779Z,12.89
2023-03-20T12:22:27.340Z,12.74
2023-03-20T12:24:02.627Z,12.95
2023-03-20T12:25:21.698Z,13.11
2023-03-20T12:26:51.340Z,13.38
2023-03-20T12:28:03.943Z,13.42
2023-03-20T12:29:17.269Z,13.56
2023-03-20T12:30:57.120Z,13.92
2023-03-20T12:32:07.306Z,13.55
2023-03-20T12:33:14.678Z,13.43
2023-03-20T12:34:23.155Z,13.31
2023-03-20T12:35:34.375Z,13.30
2023-03-20T12:36:48.713Z,13.30
2023-03-20T12:37:51.352Z,13.25
2023-03-20T12:38:53.990Z,13.27
2023-03-20T12:40:00.595Z,13.61
2023-03-20T12:41:11.632Z,13.58
2023-03-20T12:42:32.396Z,13.56
2023-03-20T12:44:08.641Z,13.56
2023-03-20T12:45:14.766Z,13.64
2023-03-20T12:46:32.648Z,13.57
2023-03-20T12:47:53.172Z,13.73
2023-03-20T12:49:36.849Z,13.58
2023-03-20T12:50:45.600Z,13.34
2023-03-20T12:52:06.123Z,13.10
2023-03-20T12:53:40.927Z,13.15
2023-03-20T12:54:51.962Z,12.83
2023-03-20T12:56:15.858Z,13.00
2023-03-20T12:57:24.136Z,13.08
2023-03-20T12:58:44.301Z,13.00
2023-03-20T12:59:55.566Z,12.86
2023-03-20T13:01:17.466Z,12.72
2023-03-20T13:02:22.961Z,12.58
2023-03-20T13:03:46.335Z,12.64
2023-03-20T13:05:13.449Z,12.77
2023-03-20T13:06:27.852Z,12.62
2023-03-20T13:07:51.369Z,12.54
2023-03-20T13:09:35.652Z,12.61
2023-03-20T13:10:48.971Z,12.59
2023-03-20T13:12:09.499Z,12.55
2023-03-20T13:13:36.025Z,12.45
2023-03-20T13:15:05.896Z,12.39
2023-03-20T13:16:20.555Z,12.07
2023-03-20T13:17:36.156Z,12.19
2023-03-20T13:19:01.583Z,12.21
2023-03-20T13:20:24.272Z,12.13
2023-03-20T13:21:33.260Z,12.05
2023-03-20T13:22:51.024Z,12.11
2023-03-20T13:24:45.860Z,12.04
2023-03-20T13:25:57.142Z,12.23
2023-03-20T13:27:16.132Z,12.23
2023-03-20T13:28:31.702Z,12.24
2023-03-20T13:29:53.183Z,12.35
2023-03-20T13:30:59.916Z,12.10
2023-03-20T13:32:25.967Z,12.19
2023-03-20T13:33:34.466Z,12.20
2023-03-20T13:34:48.757Z,12.12
2023-03-20T13:36:31.477Z,12.21
2023-03-20T13:37:39.041Z,12.10
2023-03-20T13:38:47.682Z,11.98
2023-03-20T13:40:06.214Z,11.99
2023-03-20T13:41:10.711Z,11.82
2023-03-20T13:42:18.397Z,11.86
2023-03-20T13:43:30.891Z,11.82
2023-03-20T13:44:34.863Z,11.90
2023-03-20T13:45:42.634Z,11.85
2023-03-20T13:46:50.854Z,11.88
2023-03-20T13:47:54.997Z,11.77
2023-03-20T13:49:13.117Z,11.76
2023-03-20T13:50:54.395Z,11.70
2023-03-20T13:52:02.917Z,11.68
2023-03-20T13:53:30.757Z,11.61
2023-03-20T13:55:01.126Z,11.73
2023-03-20T13:56:39.909Z,11.61
2023-03-20T13:58:03.762Z,11.59
2023-03-20T13:59:35.442Z,11.57
2023-03-20T14:00:47.241Z,11.31
2023-03-20T14:02:07.857Z,11.25
2023-03-20T14:03:35.967Z,11.16
2023-03-20T14:04:39.407Z,11.05
2023-03-20T14:05:43.725Z,10.99
2023-03-20T14:06:51.912Z,10.73
2023-03-20T14:07:58.736Z,10.91
2023-03-20T14:09:01.136Z,10.76
2023-03-20T14:10:26.456Z,10.90
2023-03-20T14:11:35.766Z,10.86
2023-03-20T14:12:38.329Z,10.72
2023-03-20T14:13:47.692Z,10.78
2023-03-20T14:14:55.261Z,10.64
2023-03-20T14:16:01.733Z,10.66
2023-03-20T14:17:14.452Z,10.68
2023-03-20T14:18:18.906Z,10.60
2023-03-20T14:19:25.657Z,10.84
2023-03-20T14:20:41.214Z,10.66
2023-03-20T14:21:49.613Z,11.01
2023-03-20T14:22:52.375Z,10.85
2023-03-20T14:24:02.229Z,11.03
2023-03-20T14:25:12.914Z,11.06
2023-03-20T14:26:31.619Z,11.11
2023-03-20T14:28:13.148Z,11.20
2023-03-20T14:29:15.541Z,10.96
2023-03-20T14:30:29.946Z,11.35
2023-03-20T14:31:38.522Z,11.06
2023-03-20T14:33:13.229Z,10.95
2023-03-20T14:34:24.729Z,10.90
2023-03-20T14:35:28.905Z,10.75
2023-03-20T14:37:03.323Z,10.99
2023-03-20T14:38:30.066Z,11.12
2023-03-20T14:39:44.233Z,11.17
2023-03-20T14:40:52.569Z,11.26
2023-03-20T14:42:24.746Z,11.28
2023-03-20T14:43:59.864Z,11.31
2023-03-20T14:45:20.592Z,11.40
2023-03-20T14:46:26.473Z,11.25
2023-03-20T14:48:05.955Z,11.22
2023-03-20T14:49:27.439Z,11.14
2023-03-20T14:50:39.226Z,10.93
2023-03-20T14:51:46.035Z,10.94
2023-03-20T14:52:57.321Z,11.02
2023-03-20T14:54:29.596Z,11.11
2023-03-20T14:55:48.914Z,10.95
2023-03-20T14:56:52.285Z,10.81
2023-03-20T14:57:56.976Z,10.81
2023-03-20T14:59:04.167Z,10.70
2023-03-20T15:00:20.602Z,10.68
2023-03-20T15:01:23.082Z,10.48
2023-03-20T15:02:34.640Z,10.52
2023-03-20T15:03:40.770Z,10.58
2023-03-20T15:04:43.399Z,10.63
2023-03-20T15:05:47.126Z,10.78
2023-03-20T15:06:54.687Z,11.02
2023-03-20T15:08:03.322Z,11.00
2023-03-20T15:09:09.946Z,10.95
2023-03-20T15:10:12.925Z,10.97
2023-03-20T15:11:16.174Z,10.67
2023-03-20T15:12:26.149Z,10.85
2023-03-20T15:13:31.176Z,10.84
2023-03-20T15:14:44.248Z,10.91
2023-03-20T15:15:59.388Z,10.88
2023-03-20T15:17:03.340Z,10.86
2023-03-20T15:18:14.369Z,10.98
2023-03-20T15:19:20.508Z,10.92
2023-03-20T15:20:31.413Z,11.09